Terminal Aerodrome Forecast
Issued by NWS Albany, NY

Home | Current Version | Previous Version | Text Only | Print | Product List | Glossary On
Versions: 1 2 3 4 5 6 7 8 9 10 11 12 13 14 15 16 17 18 19 20 21 22 23 24 25 26 27 28 29 30 31 32 33 34 35 36 37 38 39 40 41 42 43 44
000
FTUS41 KALY 041123
TAFGFL
TAF
KGFL 041123Z 0412/0512 05004KT 2SM -DZ BR SCT004 OVC008
      TEMPO 0412/0416 1SM -RA BR BKN004 OVC008
     FM042200 02005KT 4SM BR VCSH SCT005 OVC015
     FM050400 01004KT 2SM -DZ BR SCT004 OVC008=

USA.gov is the U.S. government's official web portal to all federal, state and local government web resources and services.